Time;durP1;ratioP1;P1;durP2;ratioP2;P2;SDS_P1;SDS_P2;PMS_P1;PMS_P2;Temp;Humidity;BMP_temperature;BMP_pressure;BME280_temperature;BME280_humidity;BME280_pressure;Samples;Min_cycle;Max_cycle;Signal;HPM_P1;HPM_P2
2021/03/22 00:01:44;;;;;;;0.40;0.30;;;;;;;2.36;67.70;101184.91;5053234;28;20530;-70
2021/03/22 00:04:10;;;;;;;0.40;0.30;;;;;;;2.34;67.17;101194.19;5053352;28;20438;-70
2021/03/22 00:06:36;;;;;;;0.50;0.40;;;;;;;2.30;66.53;101195.69;5053268;28;20449;-70
2021/03/22 00:09:03;;;;;;;0.40;0.30;;;;;;;2.30;67.63;101188.50;5053222;28;20482;-70
2021/03/22 00:11:29;;;;;;;0.40;0.30;;;;;;;2.33;67.49;101174.66;5052854;28;20982;-69
2021/03/22 00:13:55;;;;;;;0.40;0.30;;;;;;;2.37;67.52;101172.34;5052932;28;20451;-69
2021/03/22 00:16:21;;;;;;;0.50;0.40;;;;;;;2.37;66.49;101175.84;5053161;28;20446;-69
2021/03/22 00:18:48;;;;;;;0.40;0.27;;;;;;;2.40;67.44;101186.06;5053115;28;20458;-69
2021/03/22 00:21:15;;;;;;;0.40;0.30;;;;;;;2.44;67.89;101186.44;5052672;28;20485;-69
2021/03/22 00:23:40;;;;;;;0.40;0.30;;;;;;;2.49;67.86;101184.69;5052995;28;20444;-69
2021/03/22 00:26:07;;;;;;;0.40;0.30;;;;;;;2.52;67.80;101183.38;5052674;28;20480;-69
2021/03/22 00:28:38;;;;;;;0.40;0.30;;;;;;;2.45;68.08;101177.34;5052891;28;20485;-69
2021/03/22 00:31:05;;;;;;;0.80;0.60;;;;;;;2.44;68.18;101186.44;5053022;28;20534;-70
2021/03/22 00:33:31;;;;;;;0.40;0.30;;;;;;;2.39;68.56;101172.94;5055301;28;20453;-70
2021/03/22 00:35:58;;;;;;;0.50;0.40;;;;;;;2.41;68.38;101178.88;5057221;28;20442;-70
2021/03/22 00:38:24;;;;;;;0.40;0.30;;;;;;;2.39;68.68;101170.25;5057053;28;20815;-70
2021/03/22 00:40:50;;;;;;;1.43;0.67;;;;;;;2.36;67.70;101178.75;5056756;28;20473;-70
2021/03/22 00:43:16;;;;;;;0.40;0.30;;;;;;;2.36;68.67;101176.09;5057064;28;20446;-70
2021/03/22 00:45:42;;;;;;;0.43;0.33;;;;;;;2.29;69.65;101173.50;5056948;28;20442;-69
2021/03/22 00:48:09;;;;;;;0.50;0.40;;;;;;;2.25;70.70;101172.34;5056925;28;20560;-70
2021/03/22 00:50:37;;;;;;;0.60;0.50;;;;;;;2.26;70.96;101168.66;5056525;28;20489;-70
2021/03/22 00:53:04;;;;;;;0.50;0.40;;;;;;;2.24;71.23;101171.53;5056549;28;20965;-69
2021/03/22 00:55:30;;;;;;;0.50;0.40;;;;;;;2.22;71.45;101168.28;5056500;28;20942;-70
2021/03/22 00:57:57;;;;;;;0.40;0.30;;;;;;;1.99;72.02;101170.91;5056767;28;20444;-70
2021/03/22 01:00:28;;;;;;;0.60;0.40;;;;;;;1.99;72.23;101174.41;5056652;28;20472;-70
2021/03/22 01:02:55;;;;;;;1.33;0.93;;;;;;;1.94;72.07;101170.78;5056486;28;20938;-68
2021/03/22 01:05:21;;;;;;;0.40;0.30;;;;;;;1.85;72.98;101172.16;5056634;28;20430;-70
2021/03/22 01:07:48;;;;;;;1.00;0.83;;;;;;;1.85;72.63;101172.16;5056341;28;20970;-69
2021/03/22 01:10:31;;;;;;;0.70;0.50;;;;;;;1.79;72.04;101167.75;5056484;28;20466;-70
2021/03/22 01:12:57;;;;;;;0.40;0.30;;;;;;;1.68;72.45;101162.16;5056593;28;20442;-69
2021/03/22 01:15:24;;;;;;;0.93;0.60;;;;;;;1.67;72.96;101165.84;5055822;28;20520;-67
2021/03/22 01:17:50;;;;;;;0.40;0.30;;;;;;;1.63;73.08;101161.97;5056387;28;20496;-66
2021/03/22 01:20:21;;;;;;;0.40;0.40;;;;;;;1.63;72.99;101166.50;5055500;28;20470;-70
2021/03/22 01:22:47;;;;;;;0.40;0.40;;;;;;;1.64;73.11;101166.31;5056399;28;20426;-70
2021/03/22 01:25:13;;;;;;;1.53;1.27;;;;;;;1.54;73.22;101167.88;5056191;28;20449;-69
2021/03/22 01:27:42;;;;;;;0.40;0.30;;;;;;;1.55;72.87;101159.66;5056230;28;20445;-69
2021/03/22 01:30:16;;;;;;;0.40;0.30;;;;;;;1.50;74.69;101165.66;5056147;28;20864;-69
2021/03/22 01:32:42;;;;;;;0.40;0.30;;;;;;;1.49;75.51;101164.03;5056108;28;20528;-69
2021/03/22 01:35:09;;;;;;;0.60;0.53;;;;;;;1.51;75.63;101156.63;5055766;28;20458;-69
2021/03/22 01:37:36;;;;;;;0.53;0.53;;;;;;;1.50;75.76;101151.50;5056054;28;20446;-69
2021/03/22 01:40:04;;;;;;;0.93;0.60;;;;;;;1.50;76.23;101154.16;5055540;28;21005;-69
2021/03/22 01:42:42;;;;;;;1.17;0.87;;;;;;;1.52;76.25;101144.09;5055920;28;20900;-68
2021/03/22 01:45:10;;;;;;;1.70;1.07;;;;;;;1.34;77.25;101144.94;5059663;28;20437;-69
2021/03/22 01:47:37;;;;;;;3.80;0.63;;;;;;;1.26;77.71;101147.94;5056147;28;20442;-69
2021/03/22 01:50:07;;;;;;;1.17;0.50;;;;;;;1.30;78.00;101145.63;5055362;28;21072;-70
2021/03/22 01:52:35;;;;;;;0.40;0.30;;;;;;;1.36;77.51;101147.38;5055858;28;20429;-69
2021/03/22 01:55:01;;;;;;;0.70;0.63;;;;;;;1.40;78.01;101145.91;5055679;28;20471;-69
2021/03/22 01:57:32;;;;;;;0.63;0.63;;;;;;;1.26;77.75;101147.94;5055672;28;20446;-69
2021/03/22 02:00:11;;;;;;;0.40;0.30;;;;;;;1.34;78.27;101146.81;5055611;28;20469;-69
2021/03/22 02:02:38;;;;;;;0.40;0.30;;;;;;;1.35;77.46;101140.44;5055352;28;20911;-69
2021/03/22 02:05:05;;;;;;;1.83;0.80;;;;;;;1.37;77.39;101141.81;5055536;28;20434;-70
2021/03/22 02:07:32;;;;;;;0.40;0.30;;;;;;;1.40;76.84;101149.38;5055519;28;20442;-69
2021/03/22 02:09:58;;;;;;;0.40;0.30;;;;;;;1.45;77.04;101144.16;5054574;28;21008;-70
2021/03/22 02:12:25;;;;;;;0.40;0.30;;;;;;;1.42;77.13;101141.16;5055344;28;20445;-70
2021/03/22 02:14:53;;;;;;;0.50;0.37;;;;;;;1.50;77.47;101138.97;5055375;28;20465;-69
2021/03/22 02:17:30;;;;;;;0.90;0.83;;;;;;;1.49;77.00;101141.88;5055306;28;20441;-70
2021/03/22 02:20:29;;;;;;;0.97;0.87;;;;;;;1.56;77.89;101139.94;5055285;28;20461;-69
2021/03/22 02:23:38;;;;;;;1.53;0.50;;;;;;;1.57;77.35;101133.53;5055187;28;20430;-70
2021/03/22 02:26:25;;;;;;;0.50;0.40;;;;;;;1.60;77.35;101138.44;5055232;28;20437;-69
2021/03/22 02:29:01;;;;;;;0.40;0.30;;;;;;;1.64;78.21;101147.63;5055045;28;20470;-70
2021/03/22 02:32:16;;;;;;;0.70;0.70;;;;;;;1.65;77.91;101138.56;5055004;28;20476;-70
2021/03/22 02:34:48;;;;;;;0.47;0.40;;;;;;;1.66;78.13;101142.03;5055072;28;20775;-70
2021/03/22 02:37:37;;;;;;;4.20;2.23;;;;;;;1.69;77.99;101142.41;5054934;28;20452;-69
2021/03/22 02:40:11;;;;;;;0.40;0.30;;;;;;;1.73;78.40;101148.09;5054601;28;20477;-67
2021/03/22 02:42:40;;;;;;;1.20;0.77;;;;;;;1.67;78.22;101149.81;5054893;28;20426;-69
2021/03/22 02:45:09;;;;;;;0.40;0.37;;;;;;;1.55;79.02;101138.31;5054791;28;20528;-70
2021/03/22 02:47:38;;;;;;;0.40;0.30;;;;;;;1.59;79.66;101144.78;5054738;28;20446;-69
2021/03/22 02:50:10;;;;;;;0.40;0.30;;;;;;;1.62;79.52;101143.53;5054191;28;20858;-69
2021/03/22 02:53:13;;;;;;;0.40;0.30;;;;;;;1.47;80.74;101152.78;5054646;28;20427;-69
2021/03/22 02:55:56;;;;;;;0.40;0.27;;;;;;;1.45;81.14;101162.84;5054103;28;20445;-69
2021/03/22 02:58:27;;;;;;;0.50;0.43;;;;;;;1.41;82.00;101150.19;5054505;28;20430;-69
2021/03/22 03:01:07;;;;;;;0.40;0.30;;;;;;;1.37;82.16;101154.34;5054393;28;20523;-69
2021/03/22 03:03:34;;;;;;;0.40;0.30;;;;;;;1.36;81.91;101156.19;5054545;28;20427;-71
2021/03/22 03:06:01;;;;;;;0.80;0.80;;;;;;;1.24;83.04;101156.16;5054355;28;20511;-70
2021/03/22 03:08:31;;;;;;;0.40;0.30;;;;;;;1.21;83.20;101161.94;5053931;28;20489;-70
2021/03/22 03:10:59;;;;;;;0.60;0.40;;;;;;;1.26;82.70;101167.41;5054243;28;20465;-71
2021/03/22 03:13:25;;;;;;;0.40;0.30;;;;;;;1.22;83.43;101168.91;5054190;28;20441;-70
2021/03/22 03:15:51;;;;;;;0.40;0.30;;;;;;;1.21;83.59;101172.63;5054421;28;20491;-71
2021/03/22 03:18:17;;;;;;;0.53;0.53;;;;;;;1.11;82.87;101172.34;5054140;28;20462;-71
2021/03/22 03:20:43;;;;;;;0.40;0.30;;;;;;;1.06;82.82;101174.84;5054038;28;20462;-71
2021/03/22 03:23:10;;;;;;;0.70;0.60;;;;;;;0.91;83.07;101185.06;5053971;28;20451;-70
2021/03/22 03:25:36;;;;;;;0.40;0.30;;;;;;;0.86;83.01;101191.06;5054029;28;20439;-69
2021/03/22 03:28:02;;;;;;;0.40;0.30;;;;;;;0.90;83.06;101186.13;5054022;28;20445;-70
2021/03/22 03:30:32;;;;;;;6.43;0.60;;;;;;;0.99;82.82;101182.94;5053910;28;20467;-69
2021/03/22 03:32:59;;;;;;;0.40;0.30;;;;;;;0.98;83.07;101185.84;5054235;28;20481;-70
2021/03/22 03:35:29;;;;;;;0.40;0.30;;;;;;;0.86;84.79;101179.59;5053491;28;20830;-70
2021/03/22 03:37:56;;;;;;;0.43;0.40;;;;;;;0.63;85.35;101182.91;5054137;28;20438;-70
2021/03/22 03:40:25;;;;;;;0.40;0.30;;;;;;;0.65;84.46;101184.31;5053238;28;20477;-70
2021/03/22 03:42:51;;;;;;;0.40;0.30;;;;;;;0.54;84.98;101186.91;5053486;28;20504;-68
2021/03/22 03:45:18;;;;;;;0.40;0.30;;;;;;;0.47;85.37;101187.75;5053279;28;20446;-69
2021/03/22 03:47:45;;;;;;;0.40;0.30;;;;;;;0.52;85.00;101187.09;5053626;28;20827;-70
2021/03/22 03:50:15;;;;;;;0.40;0.30;;;;;;;0.47;85.48;101202.94;5053037;28;20862;-70
2021/03/22 03:52:41;;;;;;;0.40;0.30;;;;;;;0.54;85.10;101193.03;5053543;28;20438;-69
2021/03/22 03:55:08;;;;;;;0.60;0.60;;;;;;;0.56;84.79;101201.63;5053113;28;20932;-69
2021/03/22 03:57:35;;;;;;;0.40;0.30;;;;;;;0.49;85.38;101203.56;5053783;28;20497;-70
2021/03/22 04:00:03;;;;;;;0.70;0.67;;;;;;;0.50;85.60;101203.31;5053333;28;20459;-70
2021/03/22 04:02:29;;;;;;;16.83;1.07;;;;;;;0.47;85.17;101198.41;5053447;28;20491;-69
2021/03/22 04:04:55;;;;;;;0.50;0.50;;;;;;;0.42;85.29;101197.44;5053331;28;20446;-69
2021/03/22 04:07:21;;;;;;;0.87;0.87;;;;;;;0.27;85.96;101199.63;5052475;28;20446;-70
2021/03/22 04:09:48;;;;;;;0.40;0.30;;;;;;;0.18;87.00;101212.41;5053147;28;20532;-69
2021/03/22 04:12:14;;;;;;;0.40;0.40;;;;;;;0.11;87.70;101209.78;5054302;28;20430;-68
2021/03/22 04:14:40;;;;;;;0.40;0.30;;;;;;;0.29;86.44;101206.38;5055469;28;20456;-70
2021/03/22 04:17:06;;;;;;;4.73;0.80;;;;;;;0.31;86.31;101216.81;5053118;28;20492;-69
2021/03/22 04:19:32;;;;;;;0.40;0.30;;;;;;;0.35;85.85;101226.81;5052893;28;20796;-70
2021/03/22 04:21:58;;;;;;;0.40;0.30;;;;;;;0.26;86.47;101222.78;5053041;28;20465;-69
2021/03/22 04:24:24;;;;;;;1.90;1.80;;;;;;;0.35;86.20;101226.81;5053022;28;20452;-69
2021/03/22 04:26:50;;;;;;;0.50;0.50;;;;;;;0.40;86.38;101219.00;5053083;28;20438;-69
2021/03/22 04:29:16;;;;;;;0.50;0.50;;;;;;;0.34;87.15;101225.19;5052875;28;20489;-69
2021/03/22 04:31:43;;;;;;;0.40;0.40;;;;;;;0.34;87.10;101224.38;5052969;28;20488;-69
2021/03/22 04:34:12;;;;;;;0.40;0.30;;;;;;;0.41;86.87;101233.13;5052972;28;20445;-70
2021/03/22 04:36:38;;;;;;;0.50;0.40;;;;;;;0.35;87.55;101231.31;5053040;28;20458;-69
2021/03/22 04:39:05;;;;;;;0.40;0.30;;;;;;;0.29;88.14;101233.00;5052920;28;20438;-70
2021/03/22 04:41:31;;;;;;;2.93;2.73;;;;;;;0.36;87.16;101227.66;5054084;28;20489;-70
2021/03/22 04:43:57;;;;;;;0.40;0.40;;;;;;;0.40;87.40;101228.81;5052887;28;20438;-70
2021/03/22 04:46:23;;;;;;;2.50;0.57;;;;;;;0.44;86.70;101240.66;5052904;28;20970;-70
2021/03/22 04:48:50;;;;;;;1.37;0.53;;;;;;;0.38;87.17;101237.03;5052528;28;21030;-69
2021/03/22 04:51:16;;;;;;;0.40;0.30;;;;;;;0.40;87.30;101240.31;5052414;28;20975;-70
2021/03/22 04:53:42;;;;;;;0.60;0.60;;;;;;;0.38;87.28;101231.72;5052488;28;20469;-70
2021/03/22 04:56:08;;;;;;;0.50;0.40;;;;;;;0.31;86.22;101236.28;5052816;28;20492;-70
2021/03/22 04:58:35;;;;;;;0.40;0.30;;;;;;;0.28;86.08;101239.38;5052701;28;20442;-70
2021/03/22 05:01:02;;;;;;;1.33;1.13;;;;;;;0.27;85.82;101234.25;5052816;28;20469;-69
2021/03/22 05:03:28;;;;;;;0.40;0.30;;;;;;;0.35;85.17;101236.66;5052456;28;20940;-70
2021/03/22 05:05:55;;;;;;;0.63;0.63;;;;;;;0.30;85.17;101239.16;5052776;28;20468;-70
2021/03/22 05:08:23;;;;;;;0.40;0.40;;;;;;;0.18;86.23;101242.53;5052575;28;20473;-70
2021/03/22 05:10:51;;;;;;;0.40;0.30;;;;;;;0.12;87.19;101245.22;5052660;28;20473;-70
2021/03/22 05:13:19;;;;;;;0.40;0.30;;;;;;;0.08;86.85;101239.50;5052629;28;20446;-70
2021/03/22 05:15:46;;;;;;;0.40;0.30;;;;;;;0.09;86.68;101249.16;5052632;28;20445;-70
2021/03/22 05:18:13;;;;;;;0.40;0.30;;;;;;;0.15;86.50;101245.63;5052333;28;20451;-70
2021/03/22 05:20:41;;;;;;;0.40;0.30;;;;;;;0.11;86.77;101257.72;5056361;28;20515;-69
2021/03/22 05:23:10;;;;;;;0.40;0.30;;;;;;;0.10;87.29;101256.09;5056329;28;20504;-71
2021/03/22 05:25:36;;;;;;;5.47;1.03;;;;;;;0.13;87.33;101255.66;5056269;28;20447;-70
2021/03/22 05:28:03;;;;;;;0.53;0.50;;;;;;;0.24;87.20;101257.63;5056238;28;20438;-71
2021/03/22 05:30:30;;;;;;;1.50;1.43;;;;;;;0.29;88.04;101264.16;5056073;28;20489;-71
2021/03/22 05:32:57;;;;;;;0.40;0.30;;;;;;;0.39;88.06;101269.81;5056166;28;20437;-71
2021/03/22 05:35:23;;;;;;;0.50;0.50;;;;;;;0.57;88.12;101269.88;5056102;28;20844;-71
2021/03/22 05:37:50;;;;;;;0.40;0.30;;;;;;;0.72;88.54;101262.38;5056062;28;20450;-70
2021/03/22 05:40:23;;;;;;;1.13;0.57;;;;;;;0.87;90.46;101283.38;5055481;28;20477;-71
2021/03/22 05:42:59;;;;;;;1.90;0.80;;;;;;;1.06;90.92;101278.88;5055991;28;20431;-71
2021/03/22 05:45:36;;;;;;;0.50;0.40;;;;;;;1.14;91.72;101283.91;5056087;28;20430;-70
2021/03/22 05:48:14;;;;;;;0.40;0.30;;;;;;;1.26;91.88;101286.69;5055507;28;20433;-70
2021/03/22 05:50:47;;;;;;;0.40;0.30;;;;;;;1.40;93.08;101288.16;5055650;28;20509;-67
2021/03/22 05:53:40;;;;;;;0.40;0.30;;;;;;;1.46;93.62;101297.13;5055809;28;20430;-69
2021/03/22 05:56:18;;;;;;;1.43;1.07;;;;;;;1.52;94.61;101288.25;5055729;28;20457;-71
2021/03/22 05:59:32;;;;;;;0.80;0.53;;;;;;;1.59;94.67;101290.81;5055984;28;20464;-71
2021/03/22 06:02:03;;;;;;;0.60;0.50;;;;;;;1.64;94.86;101291.78;4974529;28;20473;-72
2021/03/22 06:04:37;;;;;;;0.40;0.33;;;;;;;1.60;95.75;101293.28;5038258;28;20513;-71
2021/03/22 06:07:04;;;;;;;0.40;0.30;;;;;;;1.69;95.88;101291.13;5055559;28;20430;-71
2021/03/22 06:09:36;;;;;;;0.50;0.50;;;;;;;1.70;95.37;101304.25;5055494;28;20483;-70
2021/03/22 06:12:14;;;;;;;0.40;0.33;;;;;;;1.77;95.81;101304.97;5055380;28;20454;-71
2021/03/22 06:14:48;;;;;;;6.80;1.33;;;;;;;1.86;95.50;101310.00;5055135;28;20918;-71
2021/03/22 06:17:21;;;;;;;0.40;0.30;;;;;;;1.87;95.78;101322.31;5055373;28;20421;-71
2021/03/22 06:19:53;;;;;;;0.77;0.60;;;;;;;1.83;95.92;101327.31;5055272;28;20429;-71
2021/03/22 06:22:23;;;;;;;0.73;0.73;;;;;;;1.90;96.33;101321.84;5054917;28;20414;-71
2021/03/22 06:24:50;;;;;;;0.40;0.30;;;;;;;1.93;95.83;101329.44;5055201;28;20434;-70
2021/03/22 06:27:17;;;;;;;0.40;0.30;;;;;;;2.05;96.00;101338.31;5055115;28;20453;-71
2021/03/22 06:29:44;;;;;;;0.40;0.40;;;;;;;2.08;96.20;101343.22;5054251;28;21010;-71
2021/03/22 06:32:17;;;;;;;0.40;0.30;;;;;;;2.15;96.47;101338.59;5054384;28;20450;-71
2021/03/22 06:34:49;;;;;;;0.50;0.40;;;;;;;2.21;96.47;101340.38;5055088;28;20517;-71
2021/03/22 06:37:16;;;;;;;0.40;0.30;;;;;;;2.27;96.18;101347.47;5054995;28;20513;-68
2021/03/22 06:39:43;;;;;;;0.40;0.30;;;;;;;2.33;96.13;101344.94;5054415;28;20927;-66
2021/03/22 06:42:22;;;;;;;0.57;0.57;;;;;;;2.37;96.04;101351.47;5054988;28;20422;-70
2021/03/22 06:44:49;;;;;;;0.50;0.47;;;;;;;2.42;95.36;101356.94;5054544;28;20438;-69
2021/03/22 06:47:30;;;;;;;0.40;0.30;;;;;;;2.51;95.29;101358.22;5054943;28;20438;-70
2021/03/22 06:50:14;;;;;;;0.40;0.30;;;;;;;2.51;94.87;101352.88;5054417;28;20486;-70
2021/03/22 06:52:42;;;;;;;0.40;0.30;;;;;;;2.59;95.03;101360.59;5054777;28;20459;-69
2021/03/22 06:55:25;;;;;;;0.40;0.30;;;;;;;2.66;94.55;101364.00;5054625;28;20434;-70
2021/03/22 06:57:52;;;;;;;0.40;0.30;;;;;;;2.72;94.54;101365.75;5052168;28;20454;-70
2021/03/22 07:00:21;;;;;;;0.40;0.30;;;;;;;2.77;94.26;101354.34;5054070;28;20497;-69
2021/03/22 07:02:49;;;;;;;0.83;0.67;;;;;;;2.84;93.76;101359.59;5054433;28;20532;-69
2021/03/22 07:05:21;;;;;;;0.40;0.40;;;;;;;2.88;93.97;101372.28;5054424;28;20440;-70
2021/03/22 07:07:53;;;;;;;0.40;0.40;;;;;;;2.93;93.75;101376.94;5054478;28;20438;-70
2021/03/22 07:10:19;;;;;;;0.40;0.30;;;;;;;3.05;92.82;101375.09;5054260;28;20485;-70
2021/03/22 07:12:45;;;;;;;0.40;0.40;;;;;;;3.11;92.36;101376.03;5054235;28;20450;-69
2021/03/22 07:15:22;;;;;;;0.70;0.50;;;;;;;3.22;92.62;101378.69;5054017;28;20434;-70
2021/03/22 07:18:10;;;;;;;3.57;0.97;;;;;;;3.38;92.09;101395.94;5054224;28;20495;-68
2021/03/22 07:20:36;;;;;;;0.53;0.43;;;;;;;3.49;90.84;101389.75;5054115;28;20455;-69
2021/03/22 07:23:23;;;;;;;0.40;0.30;;;;;;;3.39;90.18;101397.56;5054066;28;20460;-70
2021/03/22 07:25:52;;;;;;;0.40;0.30;;;;;;;3.54;90.70;101397.09;5054106;28;20435;-70
2021/03/22 07:28:24;;;;;;;0.40;0.30;;;;;;;3.64;89.66;101393.84;5053957;28;20454;-69
2021/03/22 07:30:57;;;;;;;0.40;0.30;;;;;;;3.72;89.45;101394.31;5053539;28;20514;-69
2021/03/22 07:33:40;;;;;;;0.50;0.40;;;;;;;3.92;88.50;101393.09;5054117;28;20772;-69
2021/03/22 07:36:21;;;;;;;0.40;0.40;;;;;;;4.11;87.83;101388.38;5053542;28;20912;-70
2021/03/22 07:39:10;;;;;;;0.40;0.30;;;;;;;4.23;86.76;101392.66;5053703;28;20439;-69
2021/03/22 07:41:44;;;;;;;0.40;0.30;;;;;;;4.23;85.12;101397.19;5053153;28;20484;-70
2021/03/22 07:44:44;;;;;;;0.50;0.40;;;;;;;4.26;84.51;101402.09;5053651;28;20427;-69
2021/03/22 07:47:24;;;;;;;0.50;0.43;;;;;;;4.23;84.82;101403.38;5010304;28;20485;-71
2021/03/22 07:50:03;;;;;;;0.40;0.30;;;;;;;4.34;84.58;101401.72;5053486;28;20466;-71
2021/03/22 07:52:36;;;;;;;0.40;0.30;;;;;;;4.36;83.40;101398.78;5053484;28;20442;-70
2021/03/22 07:55:19;;;;;;;0.40;0.27;;;;;;;4.44;83.48;101393.03;5053503;28;20426;-71
2021/03/22 07:57:52;;;;;;;1.10;0.60;;;;;;;4.49;83.15;101402.00;5053576;28;20431;-70
2021/03/22 08:00:27;;;;;;;1.10;1.00;;;;;;;4.57;83.42;101408.03;5053298;28;20454;-71
2021/03/22 08:03:12;;;;;;;0.40;0.30;;;;;;;4.62;82.08;101410.81;5053455;28;20787;-70
2021/03/22 08:05:49;;;;;;;0.60;0.50;;;;;;;4.66;81.57;101404.72;5053413;28;20441;-70
2021/03/22 08:08:25;;;;;;;2.53;2.07;;;;;;;4.69;82.39;101404.25;5053288;28;20782;-70
2021/03/22 08:10:58;;;;;;;0.40;0.30;;;;;;;4.79;81.23;101412.47;5053429;28;20554;-70
2021/03/22 08:13:36;;;;;;;4.00;0.77;;;;;;;4.86;80.41;101414.16;5054086;28;20847;-70
2021/03/22 08:16:19;;;;;;;1.40;1.30;;;;;;;4.94;80.03;101413.78;5053219;28;20433;-70
2021/03/22 08:18:52;;;;;;;1.07;0.60;;;;;;;5.00;79.12;101413.63;5053162;28;20473;-70
2021/03/22 08:21:24;;;;;;;12.30;1.00;;;;;;;5.05;79.16;101407.53;5053022;28;20512;-68
2021/03/22 08:23:54;;;;;;;4.93;0.83;;;;;;;5.17;77.73;101424.34;5053106;28;20436;-70
2021/03/22 08:26:26;;;;;;;4.60;1.83;;;;;;;5.21;77.23;101425.50;5052723;28;20944;-70
2021/03/22 08:29:02;;;;;;;0.40;0.30;;;;;;;5.36;76.64;101426.78;5053130;28;20487;-69
2021/03/22 08:31:36;;;;;;;0.70;0.70;;;;;;;5.48;75.72;101430.19;5052995;28;20458;-70
2021/03/22 08:34:09;;;;;;;0.40;0.30;;;;;;;5.45;74.85;101434.22;5053063;28;20789;-69
2021/03/22 08:36:49;;;;;;;1.40;1.30;;;;;;;5.65;74.92;101435.56;5053061;28;20477;-70
2021/03/22 08:39:22;;;;;;;0.50;0.40;;;;;;;5.87;74.79;101441.78;5053035;28;20478;-70
2021/03/22 08:41:55;;;;;;;1.27;1.27;;;;;;;5.95;72.47;101444.09;5052544;28;20478;-70
2021/03/22 08:44:25;;;;;;;0.90;0.40;;;;;;;6.10;71.72;101450.72;5052916;28;20426;-70
2021/03/22 08:46:59;;;;;;;0.40;0.30;;;;;;;6.15;71.06;101448.91;5052857;28;20469;-70
2021/03/22 08:49:44;;;;;;;5.50;0.73;;;;;;;6.31;70.22;101449.91;5052840;28;20552;-71
2021/03/22 08:52:19;;;;;;;0.40;0.30;;;;;;;6.35;70.21;101455.59;5052850;28;20422;-70
2021/03/22 08:54:46;;;;;;;0.63;0.63;;;;;;;6.36;69.53;101457.22;5055398;28;20422;-70
2021/03/22 08:57:22;;;;;;;0.40;0.30;;;;;;;6.35;69.62;101448.34;5056499;28;20966;-69
2021/03/22 08:59:49;;;;;;;0.40;0.30;;;;;;;6.35;68.80;101455.59;5056919;28;20414;-67
2021/03/22 09:02:24;;;;;;;0.40;0.30;;;;;;;6.41;69.18;101458.09;5056787;28;20453;-67
2021/03/22 09:04:53;;;;;;;1.03;0.60;;;;;;;6.43;68.91;101458.66;5056725;28;20786;-67
2021/03/22 09:07:27;;;;;;;0.40;0.30;;;;;;;6.47;67.71;101454.41;5056359;28;20442;-68
2021/03/22 09:10:13;;;;;;;2.10;0.57;;;;;;;6.59;66.90;101456.94;5057022;28;20477;-68
2021/03/22 09:12:43;;;;;;;0.40;0.30;;;;;;;6.69;65.52;101457.06;5056521;28;20445;-68
2021/03/22 09:15:14;;;;;;;0.40;0.30;;;;;;;6.63;67.37;101458.06;5056111;28;20940;-69
2021/03/22 09:18:19;;;;;;;0.60;0.53;;;;;;;6.83;67.53;101460.97;5056394;28;20431;-68
2021/03/22 09:21:09;;;;;;;0.77;0.60;;;;;;;7.02;65.47;101457.91;5056342;28;20453;-68
2021/03/22 09:23:43;;;;;;;1.30;0.43;;;;;;;7.21;62.40;101455.66;5056409;28;20476;-68
2021/03/22 09:26:10;;;;;;;0.40;0.30;;;;;;;7.31;59.73;101461.16;5056001;28;20946;-68
2021/03/22 09:28:49;;;;;;;3.57;0.70;;;;;;;7.54;59.69;101458.06;5056292;28;20430;-67
2021/03/22 09:31:37;;;;;;;0.40;0.20;;;;;;;7.67;56.97;101456.81;5056091;28;20519;-69
2021/03/22 09:34:25;;;;;;;0.40;0.30;;;;;;;7.84;55.83;101457.47;5056177;28;20422;-68
2021/03/22 09:36:51;;;;;;;1.33;0.50;;;;;;;8.11;55.30;101453.81;5055719;28;20457;-67
2021/03/22 09:39:46;;;;;;;0.40;0.30;;;;;;;8.27;54.67;101458.19;5056019;28;20442;-68
2021/03/22 09:42:22;;;;;;;0.40;0.30;;;;;;;8.21;49.44;101459.25;5056067;28;20446;-68
2021/03/22 09:45:29;;;;;;;0.40;0.30;;;;;;;7.90;48.78;101470.97;5056064;28;20476;-68
2021/03/22 09:48:20;;;;;;;0.50;0.30;;;;;;;7.84;49.49;101472.84;5055341;28;20454;-69
2021/03/22 09:50:48;;;;;;;0.50;0.30;;;;;;;7.78;49.72;101469.28;5055694;28;20493;-68
2021/03/22 09:53:20;;;;;;;2.70;0.43;;;;;;;7.69;49.62;101478.13;5055795;28;20446;-68
2021/03/22 09:56:00;;;;;;;0.40;0.30;;;;;;;7.62;48.46;101478.34;5055870;28;20427;-67
2021/03/22 09:58:31;;;;;;;0.50;0.40;;;;;;;7.62;48.59;101475.66;5055720;28;20426;-68
2021/03/22 10:01:00;;;;;;;0.40;0.30;;;;;;;7.65;48.51;101475.13;5055597;28;20469;-69
2021/03/22 10:03:48;;;;;;;3.23;2.00;;;;;;;7.72;49.42;101481.13;5055351;28;20452;-68
2021/03/22 10:06:44;;;;;;;0.40;0.30;;;;;;;7.78;50.59;101476.56;5054199;28;20430;-68
2021/03/22 10:09:17;;;;;;;0.40;0.30;;;;;;;7.64;47.05;101476.19;5055112;28;21015;-68
2021/03/22 10:11:45;;;;;;;0.40;0.30;;;;;;;7.67;47.90;101473.00;5055374;28;20470;-67
2021/03/22 10:14:20;;;;;;;0.40;0.30;;;;;;;7.73;48.30;101471.94;5054996;28;20774;-68
2021/03/22 10:16:49;;;;;;;0.50;0.30;;;;;;;7.78;48.53;101463.06;5055446;28;20418;-67
2021/03/22 10:19:19;;;;;;;1.80;0.50;;;;;;;7.94;49.29;101469.38;5055288;28;20469;-68
2021/03/22 10:21:47;;;;;;;14.13;0.77;;;;;;;8.02;47.60;101463.50;5055161;28;20469;-68
2021/03/22 10:24:24;;;;;;;1.17;0.40;;;;;;;8.05;48.88;101454.88;5055099;28;20458;-67
2021/03/22 10:26:53;;;;;;;0.40;0.20;;;;;;;8.04;47.50;101447.84;5055200;28;20520;-67
2021/03/22 10:29:27;;;;;;;0.40;0.30;;;;;;;8.16;47.29;101458.44;5055029;28;20581;-68
2021/03/22 10:32:04;;;;;;;0.40;0.30;;;;;;;8.27;49.06;101460.09;5054980;28;20465;-67
2021/03/22 10:34:39;;;;;;;0.40;0.30;;;;;;;8.48;47.57;101455.63;5055239;28;20529;-68
2021/03/22 10:37:07;;;;;;;0.40;0.30;;;;;;;8.64;47.26;101453.78;5054666;28;20804;-67
2021/03/22 10:39:35;;;;;;;0.40;0.30;;;;;;;8.73;46.55;101455.69;5055019;28;20446;-68
2021/03/22 10:42:03;;;;;;;0.47;0.37;;;;;;;8.72;45.74;101454.06;5054635;28;20480;-68
2021/03/22 10:44:36;;;;;;;0.90;0.33;;;;;;;8.86;46.23;101462.47;5056320;28;20439;-68
2021/03/22 10:47:05;;;;;;;0.70;0.70;;;;;;;8.99;44.42;101456.53;5054874;28;20434;-68
2021/03/22 10:49:32;;;;;;;0.40;0.30;;;;;;;9.12;44.39;101454.38;5054858;28;20493;-68
2021/03/22 10:52:01;;;;;;;1.37;0.40;;;;;;;9.19;45.70;101455.72;5054705;28;20865;-68
2021/03/22 10:54:41;;;;;;;0.40;0.30;;;;;;;9.30;44.43;101456.56;5054034;28;20494;-68
2021/03/22 10:57:14;;;;;;;0.40;0.30;;;;;;;9.32;45.28;101460.59;5054406;28;20918;-67
2021/03/22 10:59:43;;;;;;;0.60;0.40;;;;;;;9.57;45.79;101461.69;5054589;28;20423;-69
2021/03/22 11:02:20;;;;;;;2.40;0.87;;;;;;;9.74;44.54;101467.59;5054531;28;20442;-68
2021/03/22 11:04:48;;;;;;;1.47;0.67;;;;;;;9.86;45.31;101459.97;5054544;28;20475;-68
2021/03/22 11:07:18;;;;;;;0.50;0.40;;;;;;;9.96;44.46;101480.81;5054363;28;20446;-69
2021/03/22 11:09:53;;;;;;;0.50;0.40;;;;;;;10.01;44.76;101472.69;5053992;28;20513;-69
2021/03/22 11:12:20;;;;;;;3.90;0.70;;;;;;;10.17;44.23;101465.31;5054100;28;20976;-68
2021/03/22 11:14:46;;;;;;;0.40;0.30;;;;;;;10.15;42.84;101461.25;5053879;28;20446;-67
2021/03/22 11:17:14;;;;;;;0.40;0.33;;;;;;;10.15;43.11;101470.19;5053739;28;20446;-68
2021/03/22 11:19:44;;;;;;;0.40;0.30;;;;;;;9.82;43.34;101475.13;5054123;28;20442;-68
2021/03/22 11:22:30;;;;;;;0.50;0.40;;;;;;;9.99;44.72;101479.44;5053968;28;20435;-68
2021/03/22 11:24:58;;;;;;;0.50;0.50;;;;;;;10.51;41.67;101476.28;5053649;28;20870;-69
2021/03/22 11:27:45;;;;;;;0.50;0.40;;;;;;;11.68;41.44;101480.06;5053655;28;20828;-68
2021/03/22 11:30:13;;;;;;;0.40;0.30;;;;;;;13.09;38.77;101484.03;5053424;28;20559;-67
2021/03/22 11:32:46;;;;;;;0.70;0.50;;;;;;;13.87;37.88;101482.47;5054130;28;20450;-66
2021/03/22 11:35:21;;;;;;;1.93;0.40;;;;;;;14.84;35.86;101485.94;5053847;28;20427;-67
2021/03/22 11:37:54;;;;;;;0.50;0.30;;;;;;;16.10;35.25;101477.59;5053932;28;20418;-66
2021/03/22 11:40:24;;;;;;;0.50;0.40;;;;;;;15.72;33.70;101488.22;5053752;28;20474;-68
2021/03/22 11:42:55;;;;;;;0.60;0.30;;;;;;;15.03;33.50;101480.31;5053862;28;20424;-67
2021/03/22 11:45:30;;;;;;;0.40;0.30;;;;;;;14.48;35.36;101464.13;5053409;28;20928;-67
2021/03/22 11:47:57;;;;;;;0.60;0.50;;;;;;;13.43;35.09;101466.66;5053621;28;20445;-67
2021/03/22 11:50:47;;;;;;;0.70;0.30;;;;;;;13.45;35.92;101469.88;5053403;28;20485;-66
2021/03/22 11:53:18;;;;;;;1.17;0.60;;;;;;;13.88;35.73;101472.38;5053723;28;20441;-66
2021/03/22 11:55:46;;;;;;;0.40;0.30;;;;;;;14.61;33.79;101466.00;5053725;28;20525;-66